createdAt,value
2018-11-14T00:00:02.147Z,11.40
2018-11-14T00:02:30.905Z,8.90
2018-11-14T00:05:00.449Z,10.00
2018-11-14T00:07:29.673Z,8.37
2018-11-14T00:09:58.154Z,8.53
2018-11-14T00:12:26.586Z,8.33
2018-11-14T00:14:55.767Z,8.23
2018-11-14T00:17:24.437Z,7.27
2018-11-14T00:19:53.194Z,11.90
2018-11-14T00:22:21.850Z,8.17
2018-11-14T00:24:50.352Z,7.53
2018-11-14T00:27:18.771Z,8.03
2018-11-14T00:29:47.409Z,9.30
2018-11-14T00:32:15.903Z,9.57
2018-11-14T00:34:44.661Z,6.37
2018-11-14T00:37:13.597Z,10.10
2018-11-14T00:39:42.069Z,9.33
2018-11-14T00:42:17.721Z,9.33
2018-11-14T00:44:46.153Z,9.40
2018-11-14T00:47:14.610Z,9.33
2018-11-14T00:49:43.341Z,9.23
2018-11-14T00:52:11.831Z,9.40
2018-11-14T00:54:40.317Z,11.47
2018-11-14T00:57:09.871Z,9.97
2018-11-14T00:59:38.349Z,8.93
2018-11-14T01:02:06.809Z,8.57
2018-11-14T01:04:35.893Z,13.50
2018-11-14T01:07:04.457Z,10.53
2018-11-14T01:09:32.912Z,10.80
2018-11-14T01:12:01.595Z,16.50
2018-11-14T01:14:30.056Z,10.07
2018-11-14T01:16:58.539Z,10.50
2018-11-14T01:19:27.765Z,7.23
2018-11-14T01:21:56.198Z,8.77
2018-11-14T01:24:24.653Z,9.27
2018-11-14T01:26:53.612Z,8.13
2018-11-14T01:29:22.090Z,8.37
2018-11-14T01:31:50.525Z,9.73
2018-11-14T01:34:19.501Z,9.23
2018-11-14T01:36:48.107Z,11.03
2018-11-14T01:39:16.740Z,10.77
2018-11-14T01:41:46.024Z,9.80
2018-11-14T01:44:14.549Z,13.77
2018-11-14T01:46:42.996Z,11.87
2018-11-14T01:49:11.928Z,9.43
2018-11-14T01:51:40.377Z,8.27
2018-11-14T01:54:08.829Z,9.03
2018-11-14T01:56:38.281Z,10.50
2018-11-14T01:59:06.746Z,11.80
2018-11-14T02:01:35.202Z,11.57
2018-11-14T02:04:04.189Z,8.87
2018-11-14T02:06:32.625Z,12.40
2018-11-14T02:09:01.070Z,9.87
2018-11-14T02:11:29.743Z,11.87
2018-11-14T02:13:58.174Z,11.57
2018-11-14T02:16:26.651Z,11.10
2018-11-14T02:18:55.834Z,8.03
2018-11-14T02:21:24.350Z,14.50
2018-11-14T02:23:52.798Z,10.10
2018-11-14T02:26:22.533Z,9.67
2018-11-14T02:28:52.233Z,14.87
2018-11-14T02:31:20.853Z,10.47
2018-11-14T02:33:49.794Z,12.63
2018-11-14T02:36:18.377Z,9.87
2018-11-14T02:38:47.174Z,14.80
2018-11-14T02:41:16.444Z,10.57
2018-11-14T02:43:45.316Z,9.23
2018-11-14T02:46:13.748Z,10.60
2018-11-14T02:48:42.833Z,10.97
2018-11-14T02:51:21.694Z,11.93
2018-11-14T02:53:50.641Z,12.60
2018-11-14T02:56:19.084Z,10.13
2018-11-14T02:58:54.873Z,10.50
2018-11-14T03:01:23.333Z,7.63
2018-11-14T03:03:51.797Z,11.20
2018-11-14T03:06:21.345Z,8.03
2018-11-14T03:08:49.826Z,12.10
2018-11-14T03:11:18.313Z,10.20
2018-11-14T03:13:47.298Z,11.03
2018-11-14T03:16:15.725Z,9.90
2018-11-14T03:18:44.197Z,12.40
2018-11-14T03:21:12.818Z,10.70
2018-11-14T03:23:41.578Z,12.30
2018-11-14T03:26:10.042Z,12.53
2018-11-14T03:28:39.303Z,15.20
2018-11-14T03:31:07.870Z,13.63
2018-11-14T03:33:36.346Z,10.27
2018-11-14T03:36:10.133Z,10.17
2018-11-14T03:38:39.001Z,11.27
2018-11-14T03:41:07.623Z,10.40
2018-11-14T03:43:36.358Z,10.90
2018-11-14T03:46:05.388Z,11.50
2018-11-14T03:48:33.835Z,12.60
2018-11-14T03:51:02.426Z,13.30
2018-11-14T03:53:31.117Z,14.70
2018-11-14T03:55:59.581Z,13.20
2018-11-14T03:58:28.245Z,13.20
2018-11-14T04:00:56.864Z,13.37
2018-11-14T04:03:25.301Z,13.37
2018-11-14T04:05:53.865Z,12.57
2018-11-14T04:08:22.413Z,16.20
2018-11-14T04:10:50.854Z,11.50
2018-11-14T04:13:19.440Z,14.60
2018-11-14T04:15:48.384Z,13.67
2018-11-14T04:18:16.845Z,12.73
2018-11-14T04:20:45.441Z,14.47
2018-11-14T04:23:14.136Z,15.57
2018-11-14T04:25:42.580Z,12.57
2018-11-14T04:28:11.443Z,13.57
2018-11-14T04:30:40.191Z,16.40
2018-11-14T04:33:09.009Z,13.63
2018-11-14T04:35:37.568Z,16.80
2018-11-14T04:38:06.433Z,16.93
2018-11-14T04:40:34.868Z,14.70
2018-11-14T04:43:03.971Z,18.83
2018-11-14T04:45:32.904Z,17.37
2018-11-14T04:48:01.506Z,13.80
2018-11-14T04:50:30.288Z,18.73
2018-11-14T04:52:58.809Z,16.90
2018-11-14T04:55:27.749Z,16.77
2018-11-14T04:57:56.393Z,17.40
2018-11-14T05:00:25.925Z,16.53
2018-11-14T05:02:54.385Z,20.20
2018-11-14T05:05:24.246Z,18.03
2018-11-14T05:07:52.792Z,15.77
2018-11-14T05:10:22.702Z,16.50
2018-11-14T05:12:51.682Z,17.73
2018-11-14T05:15:21.514Z,17.30
2018-11-14T05:17:50.597Z,20.17
2018-11-14T05:20:20.317Z,20.80
2018-11-14T05:22:49.109Z,18.97
2018-11-14T05:25:17.773Z,18.93
2018-11-14T05:27:46.332Z,20.67
2018-11-14T05:30:16.297Z,16.47
2018-11-14T05:32:45.781Z,21.23
2018-11-14T05:35:15.165Z,15.27
2018-11-14T05:37:43.850Z,18.33
2018-11-14T05:40:14.468Z,14.50
2018-11-14T05:42:43.677Z,16.17
2018-11-14T05:45:20.088Z,18.87
2018-11-14T05:47:48.740Z,17.63
2018-11-14T05:50:24.243Z,18.50
2018-11-14T05:52:53.168Z,17.17
2018-11-14T05:55:21.625Z,18.90
2018-11-14T05:57:50.728Z,23.70
2018-11-14T06:00:30.265Z,18.70
2018-11-14T06:02:59.439Z,21.80
2018-11-14T06:05:27.909Z,18.70
2018-11-14T06:07:56.709Z,19.67
2018-11-14T06:10:25.438Z,16.97
2018-11-14T06:12:54.771Z,18.23
2018-11-14T06:15:23.529Z,16.33
2018-11-14T06:17:53.465Z,18.97
2018-11-14T06:20:22.773Z,18.90
2018-11-14T06:22:52.137Z,17.47
2018-11-14T06:25:33.817Z,17.60
2018-11-14T06:28:03.708Z,17.13
2018-11-14T06:30:32.762Z,17.67
2018-11-14T06:33:01.846Z,15.80
2018-11-14T06:35:30.399Z,19.10
2018-11-14T06:37:59.148Z,17.40
2018-11-14T06:40:28.902Z,15.70
2018-11-14T06:42:57.453Z,16.00
2018-11-14T06:45:27.771Z,16.63
2018-11-14T06:47:57.717Z,15.17
2018-11-14T06:50:26.325Z,16.57
2018-11-14T06:52:56.365Z,16.13
2018-11-14T06:55:24.894Z,17.40
2018-11-14T06:57:53.613Z,16.67
2018-11-14T07:00:26.274Z,17.43
2018-11-14T07:02:55.998Z,17.93
2018-11-14T07:05:24.553Z,17.87
2018-11-14T07:07:53.121Z,15.03
2018-11-14T07:10:23.022Z,18.63
2018-11-14T07:12:51.469Z,17.13
2018-11-14T07:15:21.563Z,16.80
2018-11-14T07:17:50.906Z,18.33
2018-11-14T07:20:25.090Z,14.07
2018-11-14T07:22:53.564Z,15.13
2018-11-14T07:25:22.103Z,14.50
2018-11-14T07:27:50.791Z,18.30
2018-11-14T07:30:26.498Z,16.83
2018-11-14T07:32:56.522Z,14.97
2018-11-14T07:35:24.998Z,16.90
2018-11-14T07:39:00.750Z,14.13
2018-11-14T07:41:36.009Z,16.17
2018-11-14T07:44:05.303Z,15.13
2018-11-14T07:46:34.477Z,14.10
2018-11-14T07:49:03.023Z,17.63
2018-11-14T07:51:31.795Z,16.00
2018-11-14T07:54:00.655Z,15.53
2018-11-14T07:56:29.158Z,17.10
2018-11-14T07:58:58.309Z,14.50
2018-11-14T08:01:26.821Z,17.80
2018-11-14T08:03:55.323Z,15.17
2018-11-14T08:06:24.361Z,16.90
2018-11-14T08:08:52.818Z,19.73
2018-11-14T08:11:21.393Z,15.27
2018-11-14T08:13:50.311Z,14.40
2018-11-14T08:16:18.808Z,19.23
2018-11-14T08:18:47.300Z,21.57
2018-11-14T08:21:16.473Z,21.30
2018-11-14T08:23:44.938Z,23.47
2018-11-14T08:26:13.422Z,24.00
2018-11-14T08:28:42.543Z,17.83
2018-11-14T08:31:10.995Z,18.93
2018-11-14T08:33:39.438Z,13.67
2018-11-14T08:36:08.651Z,15.20
2018-11-14T08:38:37.106Z,11.90
2018-11-14T08:41:05.713Z,11.47
2018-11-14T08:43:34.729Z,11.10
2018-11-14T08:46:03.372Z,9.97
2018-11-14T08:48:32.026Z,11.73
2018-11-14T08:51:01.113Z,11.70
2018-11-14T08:53:29.570Z,10.07
2018-11-14T08:55:58.416Z,9.23
2018-11-14T08:58:27.990Z,8.20
2018-11-14T09:00:56.465Z,6.73
2018-11-14T09:03:24.927Z,7.67
2018-11-14T09:05:54.047Z,9.03
2018-11-14T09:08:22.481Z,7.20
2018-11-14T09:10:50.922Z,9.53
2018-11-14T09:13:20.456Z,7.97
2018-11-14T09:15:48.889Z,9.17
2018-11-14T09:18:17.709Z,6.53
2018-11-14T09:20:46.769Z,7.00
2018-11-14T09:23:15.221Z,10.33
2018-11-14T09:25:43.696Z,7.87
2018-11-14T09:28:12.521Z,9.27
2018-11-14T09:30:41.378Z,8.47
2018-11-14T09:33:09.853Z,7.73
2018-11-14T09:35:38.490Z,9.27
2018-11-14T09:38:07.786Z,7.17
2018-11-14T09:40:36.309Z,11.33
2018-11-14T09:43:05.249Z,7.30
2018-11-14T09:45:33.703Z,9.20
2018-11-14T09:48:02.306Z,5.30
2018-11-14T09:50:32.033Z,9.27
2018-11-14T09:53:01.955Z,7.00
2018-11-14T09:55:31.004Z,5.80
2018-11-14T09:57:59.617Z,6.43
2018-11-14T10:00:29.317Z,8.67
2018-11-14T10:03:00.768Z,7.73
2018-11-14T10:05:29.144Z,7.53
2018-11-14T10:07:57.667Z,7.03
2018-11-14T10:10:26.783Z,5.83
2018-11-14T10:12:55.201Z,7.90
2018-11-14T10:15:24.429Z,6.37
2018-11-14T10:17:53.126Z,6.60
2018-11-14T10:20:23.037Z,5.80
2018-11-14T10:22:51.709Z,4.47
2018-11-14T10:25:20.562Z,5.67
2018-11-14T10:27:49.669Z,3.30
2018-11-14T10:30:25.627Z,3.47
2018-11-14T10:32:54.431Z,3.07
2018-11-14T10:35:23.449Z,1.57
2018-11-14T10:37:52.052Z,5.33
2018-11-14T10:40:23.654Z,2.47
2018-11-14T10:42:52.637Z,4.17
2018-11-14T10:45:22.473Z,4.00
2018-11-14T10:47:50.937Z,2.27
2018-11-14T10:50:25.381Z,6.43
2018-11-14T10:52:54.271Z,2.67
2018-11-14T10:55:23.081Z,2.80
2018-11-14T10:57:52.134Z,3.60
2018-11-14T11:00:30.670Z,4.03
2018-11-14T11:03:06.805Z,1.40
2018-11-14T11:05:40.778Z,2.30
2018-11-14T11:08:14.755Z,1.80
2018-11-14T11:10:48.372Z,1.87
2018-11-14T11:13:22.182Z,2.63
2018-11-14T11:15:55.897Z,3.50
2018-11-14T11:18:26.902Z,3.43
2018-11-14T11:20:55.497Z,4.10
2018-11-14T11:23:24.386Z,2.50
2018-11-14T11:25:53.294Z,2.33
2018-11-14T11:28:21.978Z,2.30
2018-11-14T11:30:50.518Z,4.83
2018-11-14T11:33:19.605Z,4.20
2018-11-14T11:35:48.065Z,4.00
2018-11-14T11:38:16.893Z,2.93
2018-11-14T11:40:45.582Z,3.13
2018-11-14T11:43:14.036Z,3.37
2018-11-14T11:45:42.822Z,4.63
2018-11-14T11:48:11.771Z,2.73
2018-11-14T11:50:40.264Z,5.43
2018-11-14T11:53:08.874Z,3.37
2018-11-14T11:55:37.761Z,2.47
2018-11-14T11:58:06.692Z,1.67
2018-11-14T12:00:35.344Z,3.60
2018-11-14T12:03:04.129Z,3.03
2018-11-14T12:05:32.554Z,3.13
2018-11-14T12:08:01.022Z,2.03
2018-11-14T12:10:30.198Z,3.20
2018-11-14T12:12:58.658Z,3.00
2018-11-14T12:15:27.193Z,4.50
2018-11-14T12:17:55.934Z,4.70
2018-11-14T12:20:24.318Z,6.87
2018-11-14T12:22:52.831Z,4.93
2018-11-14T12:25:21.513Z,4.23
2018-11-14T12:27:49.997Z,4.73
2018-11-14T12:30:18.801Z,5.00
2018-11-14T12:32:47.497Z,3.60
2018-11-14T12:35:16.939Z,5.03
2018-11-14T12:37:45.349Z,5.80
2018-11-14T12:40:15.021Z,6.37
2018-11-14T12:42:43.490Z,4.00
2018-11-14T12:45:14.390Z,4.90
2018-11-14T12:47:42.906Z,2.07
2018-11-14T12:50:12.533Z,5.70
2018-11-14T12:52:41.315Z,2.63
2018-11-14T12:55:13.585Z,2.07
2018-11-14T12:57:42.180Z,2.00
2018-11-14T13:00:12.735Z,3.27
2018-11-14T13:02:41.309Z,4.27
2018-11-14T13:05:10.917Z,2.40
2018-11-14T13:07:39.597Z,2.93
2018-11-14T13:10:09.693Z,1.70
2018-11-14T13:12:38.217Z,1.50
2018-11-14T13:15:07.873Z,3.03
2018-11-14T13:17:36.985Z,3.43
2018-11-14T13:20:08.021Z,2.27
2018-11-14T13:22:36.535Z,4.57
2018-11-14T13:25:06.954Z,3.20
2018-11-14T13:27:35.402Z,2.90
2018-11-14T13:30:03.949Z,3.63
2018-11-14T13:32:33.437Z,4.50
2018-11-14T13:35:01.964Z,3.07
2018-11-14T13:37:30.434Z,1.70
2018-11-14T13:39:59.080Z,4.57
2018-11-14T13:42:27.640Z,2.63
2018-11-14T13:44:56.269Z,7.17
2018-11-14T13:47:25.264Z,3.70
2018-11-14T13:49:53.917Z,8.63
2018-11-14T13:52:22.629Z,3.97
2018-11-14T13:54:52.183Z,6.20
2018-11-14T13:57:20.764Z,2.97
2018-11-14T13:59:49.273Z,3.07
2018-11-14T14:02:18.293Z,5.90
2018-11-14T14:04:46.787Z,4.90
2018-11-14T14:07:15.241Z,5.07
2018-11-14T14:09:44.350Z,5.43
2018-11-14T14:12:12.829Z,2.57
2018-11-14T14:14:41.414Z,4.77
2018-11-14T14:17:10.350Z,7.60
2018-11-14T14:19:38.833Z,5.40
2018-11-14T14:22:07.343Z,4.53
2018-11-14T14:24:36.402Z,5.77
2018-11-14T14:27:04.970Z,3.73
2018-11-14T14:29:33.413Z,3.53
2018-11-14T14:32:02.181Z,3.57
2018-11-14T14:34:30.668Z,6.07
2018-11-14T14:36:59.122Z,5.30
2018-11-14T14:39:27.901Z,6.27
2018-11-14T14:41:56.453Z,3.60
2018-11-14T14:44:24.877Z,3.67
2018-11-14T14:46:53.493Z,5.27
2018-11-14T14:49:28.846Z,4.40
2018-11-14T14:51:59.014Z,8.63
2018-11-14T14:54:27.485Z,4.30
2018-11-14T14:56:56.105Z,4.80
2018-11-14T14:59:25.378Z,5.13
2018-11-14T15:01:53.813Z,2.93
2018-11-14T15:04:22.317Z,3.83
2018-11-14T15:06:50.970Z,4.80
2018-11-14T15:09:19.425Z,5.30
2018-11-14T15:11:48.093Z,6.30
2018-11-14T15:14:17.786Z,4.50
2018-11-14T15:16:46.213Z,3.80
2018-11-14T15:19:14.738Z,4.33
2018-11-14T15:21:43.846Z,1.40
2018-11-14T15:24:12.987Z,5.47
2018-11-14T15:26:41.558Z,8.00
2018-11-14T15:29:10.214Z,5.03
2018-11-14T15:31:38.692Z,4.10
2018-11-14T15:34:07.821Z,8.33
2018-11-14T15:36:36.990Z,6.87
2018-11-14T15:39:07.950Z,3.40
2018-11-14T15:41:36.401Z,4.07
2018-11-14T15:44:05.069Z,5.43
2018-11-14T15:46:33.715Z,5.90
2018-11-14T15:49:02.201Z,2.87
2018-11-14T15:51:30.952Z,4.30
2018-11-14T15:53:59.469Z,4.50
2018-11-14T15:56:27.957Z,4.40
2018-11-14T15:58:56.647Z,5.67
2018-11-14T16:01:25.457Z,6.57
2018-11-14T16:03:54.117Z,6.73
2018-11-14T16:06:22.850Z,3.20
2018-11-14T16:08:51.590Z,3.57
2018-11-14T16:11:20.097Z,4.13
2018-11-14T16:13:54.296Z,5.83
2018-11-14T16:16:22.751Z,2.53
2018-11-14T16:18:51.652Z,2.87
2018-11-14T16:21:20.427Z,7.93
2018-11-14T16:23:49.054Z,4.37
2018-11-14T16:26:17.643Z,8.10
2018-11-14T16:28:46.845Z,5.63
2018-11-14T16:31:15.335Z,4.60
2018-11-14T16:33:44.330Z,2.20
2018-11-14T16:36:13.378Z,3.03
2018-11-14T16:38:42.533Z,6.63
2018-11-14T16:41:11.161Z,6.20
2018-11-14T16:43:39.995Z,4.43
2018-11-14T16:46:08.528Z,6.73
2018-11-14T16:48:37.062Z,5.47
2018-11-14T16:51:06.047Z,4.03
2018-11-14T16:53:34.510Z,6.23
2018-11-14T16:56:03.060Z,5.27
2018-11-14T16:58:31.790Z,6.13
2018-11-14T17:01:00.469Z,3.13
2018-11-14T17:03:29.302Z,6.13
2018-11-14T17:05:59.142Z,3.30
2018-11-14T17:08:27.622Z,7.33
2018-11-14T17:10:56.158Z,5.87
2018-11-14T17:13:25.196Z,4.47
2018-11-14T17:15:53.665Z,3.43
2018-11-14T17:18:22.560Z,5.77
2018-11-14T17:20:51.142Z,5.70
2018-11-14T17:23:19.598Z,2.17
2018-11-14T17:25:48.391Z,6.50
2018-11-14T17:28:17.045Z,4.80
2018-11-14T17:30:45.582Z,4.50
2018-11-14T17:33:14.198Z,3.30
2018-11-14T17:35:43.010Z,3.90
2018-11-14T17:38:11.485Z,4.80
2018-11-14T17:40:40.426Z,2.77
2018-11-14T17:43:09.086Z,6.87
2018-11-14T17:45:37.713Z,4.50
2018-11-14T17:48:06.302Z,4.70
2018-11-14T17:50:36.082Z,7.93
2018-11-14T17:53:04.841Z,5.03
2018-11-14T17:55:33.539Z,4.53
2018-11-14T17:58:02.159Z,5.00
2018-11-14T18:00:36.957Z,4.43
2018-11-14T18:03:05.612Z,5.70
2018-11-14T18:05:34.222Z,6.03
2018-11-14T18:08:02.838Z,7.90
2018-11-14T18:10:32.579Z,4.97
2018-11-14T18:13:02.085Z,6.83
2018-11-14T18:15:30.665Z,4.57
2018-11-14T18:17:59.861Z,7.63
2018-11-14T18:20:29.711Z,6.20
2018-11-14T18:22:58.351Z,7.73
2018-11-14T18:25:27.202Z,4.43
2018-11-14T18:27:55.687Z,10.20
2018-11-14T18:30:26.369Z,6.70
2018-11-14T18:32:56.070Z,6.23
2018-11-14T18:35:25.190Z,5.00
2018-11-14T18:37:54.489Z,3.33
2018-11-14T18:40:24.549Z,5.63
2018-11-14T18:42:53.131Z,4.07
2018-11-14T18:45:25.557Z,5.87
2018-11-14T18:47:54.642Z,2.10
2018-11-14T18:50:23.533Z,5.10
2018-11-14T18:52:52.313Z,6.10
2018-11-14T18:55:22.162Z,7.83
2018-11-14T18:57:51.085Z,4.73
2018-11-14T19:00:22.902Z,4.43
2018-11-14T19:02:51.381Z,7.03
2018-11-14T19:05:20.605Z,3.73
2018-11-14T19:07:50.228Z,4.17
2018-11-14T19:10:20.623Z,6.60
2018-11-14T19:12:49.961Z,4.00
2018-11-14T19:15:19.818Z,9.70
2018-11-14T19:17:48.549Z,4.10
2018-11-14T19:20:22.234Z,8.30
2018-11-14T19:22:51.245Z,6.00
2018-11-14T19:25:21.463Z,4.77
2018-11-14T19:27:50.767Z,3.70
2018-11-14T19:30:27.017Z,4.20
2018-11-14T19:32:56.213Z,7.30
2018-11-14T19:35:24.743Z,3.83
2018-11-14T19:37:55.018Z,9.30
2018-11-14T19:40:25.497Z,3.43
2018-11-14T19:42:58.863Z,5.67
2018-11-14T19:45:30.214Z,2.23
2018-11-14T19:47:58.695Z,3.87
2018-11-14T19:50:27.329Z,2.93
2018-11-14T19:52:56.812Z,4.40
2018-11-14T19:55:26.466Z,5.53
2018-11-14T19:57:57.121Z,3.60
2018-11-14T20:00:29.125Z,5.70
2018-11-14T20:02:58.179Z,5.10
2018-11-14T20:05:26.657Z,4.47
2018-11-14T20:07:55.522Z,8.50
2018-11-14T20:10:27.594Z,3.87
2018-11-14T20:12:56.262Z,4.87
2018-11-14T20:15:26.279Z,10.50
2018-11-14T20:17:55.029Z,3.47
2018-11-14T20:20:25.152Z,9.07
2018-11-14T20:22:53.670Z,2.37
2018-11-14T20:25:22.376Z,3.73
2018-11-14T20:27:51.416Z,4.77
2018-11-14T20:30:24.836Z,7.23
2018-11-14T20:32:54.464Z,3.43
2018-11-14T20:35:23.768Z,5.30
2018-11-14T20:37:52.488Z,4.13
2018-11-14T20:40:21.841Z,3.47
2018-11-14T20:42:51.096Z,7.30
2018-11-14T20:45:21.133Z,4.13
2018-11-14T20:47:50.080Z,3.43
2018-11-14T20:50:20.783Z,6.23
2018-11-14T20:52:51.019Z,3.27
2018-11-14T20:55:19.661Z,3.90
2018-11-14T20:57:48.129Z,6.90
2018-11-14T21:00:19.741Z,3.23
2018-11-14T21:02:48.285Z,6.50
2018-11-14T21:05:16.841Z,3.20
2018-11-14T21:07:45.506Z,4.97
2018-11-14T21:10:16.023Z,6.00
2018-11-14T21:12:44.778Z,3.20
2018-11-14T21:15:15.718Z,4.07
2018-11-14T21:17:44.577Z,3.77
2018-11-14T21:20:13.221Z,4.10
2018-11-14T21:22:42.103Z,6.80
2018-11-14T21:25:12.382Z,3.30
2018-11-14T21:27:42.329Z,3.40
2018-11-14T21:30:12.538Z,4.03
2018-11-14T21:32:41.873Z,2.97
2018-11-14T21:35:15.578Z,3.00
2018-11-14T21:37:45.319Z,2.20
2018-11-14T21:40:14.018Z,4.87
2018-11-14T21:42:43.158Z,3.97
2018-11-14T21:45:14.011Z,4.10
2018-11-14T21:47:47.870Z,5.10
2018-11-14T21:50:17.673Z,5.53
2018-11-14T21:52:46.462Z,4.23
2018-11-14T21:55:14.986Z,4.47
2018-11-14T21:57:44.084Z,2.60
2018-11-14T22:00:15.782Z,4.93
2018-11-14T22:02:45.693Z,5.10
2018-11-14T22:05:14.926Z,5.90
2018-11-14T22:07:43.835Z,2.30
2018-11-14T22:10:16.889Z,6.97
2018-11-14T22:12:45.935Z,2.50
2018-11-14T22:15:15.277Z,3.90
2018-11-14T22:17:43.909Z,4.73
2018-11-14T22:20:13.627Z,4.13
2018-11-14T22:22:42.810Z,5.30
2018-11-14T22:25:15.419Z,4.77
2018-11-14T22:27:46.282Z,5.33
2018-11-14T22:30:19.017Z,4.17
2018-11-14T22:32:47.647Z,2.53
2018-11-14T22:35:17.511Z,3.90
2018-11-14T22:37:46.203Z,4.47
2018-11-14T22:40:16.078Z,5.23
2018-11-14T22:42:45.188Z,8.33
2018-11-14T22:45:16.099Z,5.03
2018-11-14T22:47:45.236Z,5.17
2018-11-14T22:50:15.093Z,3.97
2018-11-14T22:52:44.346Z,6.73
2018-11-14T22:55:14.085Z,4.87
2018-11-14T22:57:43.229Z,5.03
2018-11-14T23:00:19.925Z,8.70
2018-11-14T23:02:50.644Z,4.70
2018-11-14T23:05:19.632Z,3.60
2018-11-14T23:07:49.953Z,7.60
2018-11-14T23:10:19.481Z,8.63
2018-11-14T23:12:48.764Z,6.47
2018-11-14T23:15:17.927Z,5.67
2018-11-14T23:17:46.590Z,3.33
2018-11-14T23:20:15.958Z,6.37
2018-11-14T23:22:45.312Z,7.43
2018-11-14T23:25:14.425Z,6.77
2018-11-14T23:27:45.090Z,8.30
2018-11-14T23:30:14.905Z,4.40
2018-11-14T23:32:44.698Z,5.60
2018-11-14T23:35:20.850Z,6.00
2018-11-14T23:37:50.449Z,6.47
2018-11-14T23:40:20.061Z,5.13
2018-11-14T23:42:49.081Z,6.33
2018-11-14T23:45:18.621Z,5.27
2018-11-14T23:47:47.849Z,4.90
2018-11-14T23:50:20.301Z,7.03
2018-11-14T23:52:49.800Z,7.70
2018-11-14T23:55:18.961Z,5.93
2018-11-14T23:57:47.547Z,9.03
